»·PEaware :: CGDXL KSNA-KSNA

CGDXL :: KSNA-KSNA

FLIGHT INFORMATION

Flight Status: Arrived
Operator: Unknown
More flights by this operator :: More flights under this callsign
Pilot: Pierre B. (1359)
Aircraft: BELLANCA AIRCRAFT CHAMP - CITABRIA
(CH7A)
More flights by this aircraft type
Origin: KSNA John Wayne-Orange Co
United States
Destination: KSNA John Wayne-Orange Co
United States
More flights between these airports :: More routes between these airports
Route: +SLI
File this flight plan on PilotEdge
Remarks: for IR 1 test / V /
Altitude:
(Current/Filed)
3,000ft
Speed:
(Current/Filed)
100kts
Departed: 15-Dec-12 12:03 PM
Arrived: 15-Dec-12 12:31 PM
Distance/Time
Traveled:
0nm/0:28
Distance/Time
To Go:
Arrived

Flight Plot

Page will automatically refresh every two minutes.


Map Options




Map Legend


Flown Route
Filed Route
Departure Airport
Arrival Airport
Navaid (VOR, NDB)
Fix

Horizontal Profiles

Position Reports

Time Latitude Longitude Heading Altitude Ground
Speed
15-Dec-12 11:46 33.670563 -117.874178 24 60ft 0kts
15-Dec-12 11:47 33.670566 -117.874176 24 60ft 0kts
15-Dec-12 11:48 33.670569 -117.874175 24 60ft 0kts
15-Dec-12 11:49 33.670571 -117.874173 24 60ft 0kts
15-Dec-12 11:50 33.670575 -117.874171 24 60ft 0kts
15-Dec-12 11:51 33.670578 -117.874170 24 60ft 0kts
15-Dec-12 11:52 33.670581 -117.874168 24 60ft 0kts
15-Dec-12 11:53 33.670584 -117.874166 25 60ft 0kts
15-Dec-12 11:54 33.670586 -117.874165 25 60ft 0kts
15-Dec-12 11:55 33.670829 -117.873820 59 60ft 7kts
15-Dec-12 11:56 33.672727 -117.872286 26 60ft 6kts
15-Dec-12 11:57 33.674305 -117.871328 24 60ft 14kts
15-Dec-12 11:58 33.680043 -117.867892 24 60ft 10kts
15-Dec-12 11:59 33.681944 -117.866739 40 60ft 6kts
15-Dec-12 12:00 33.681885 -117.866008 116 60ft 0kts
15-Dec-12 12:01 33.681884 -117.866007 116 60ft 0kts
15-Dec-12 12:02 33.681882 -117.866000 116 60ft 1kts
15-Dec-12 12:03 33.678417 -117.867084 209 79ft 62kts
15-Dec-12 12:04 33.664880 -117.878587 227 1161ft 61kts
15-Dec-12 12:05 33.654212 -117.894759 224 2136ft 64kts
15-Dec-12 12:06 33.647169 -117.913174 271 3033ft 70kts
15-Dec-12 12:07 33.666636 -117.925047 357 3810ft 95kts
15-Dec-12 12:08 33.693435 -117.922598 359 4556ft 102kts
15-Dec-12 12:09 33.722344 -117.918729 351 5060ft 112kts
15-Dec-12 12:10 33.753813 -117.914221 15 5068ft 126kts
15-Dec-12 12:11 33.784800 -117.899426 10 4966ft 114kts
15-Dec-12 12:12 33.813795 -117.886805 13 4930ft 110kts
15-Dec-12 12:13 33.839479 -117.866289 36 4544ft 110kts
15-Dec-12 12:14 33.863850 -117.845638 30 3924ft 104kts
15-Dec-12 12:15 33.887048 -117.826019 34 3292ft 99kts
15-Dec-12 12:16 33.895311 -117.800346 124 2970ft 81kts
15-Dec-12 12:17 33.879696 -117.788303 168 3049ft 63kts
15-Dec-12 12:18 33.862955 -117.779157 165 3089ft 68kts
15-Dec-12 12:19 33.845409 -117.769424 166 3014ft 67kts
15-Dec-12 12:20 33.828984 -117.769957 198 2992ft 58kts
15-Dec-12 12:21 33.815403 -117.780105 215 2971ft 56kts
15-Dec-12 12:22 33.801113 -117.789394 206 2936ft 62kts
15-Dec-12 12:23 33.785963 -117.798694 209 2566ft 62kts
15-Dec-12 12:24 33.770869 -117.807906 208 2103ft 58kts
15-Dec-12 12:25 33.757021 -117.816700 213 1791ft 54kts
15-Dec-12 12:26 33.743861 -117.825823 210 1514ft 54kts
15-Dec-12 12:27 33.730153 -117.834038 210 1181ft 54kts
15-Dec-12 12:28 33.715933 -117.843465 205 1165ft 66kts
15-Dec-12 12:29 33.701264 -117.852688 211 521ft 51kts
15-Dec-12 12:30 33.688802 -117.860328 210 256ft 47kts
15-Dec-12 12:31 33.678633 -117.866991 209 60ft 10kts
15-Dec-12 12:32 33.678331 -117.867997 294 60ft 0kts
15-Dec-12 12:33 33.678860 -117.869368 290 60ft 2kts
15-Dec-12 12:34 33.677608 -117.870359 203 60ft 0kts
15-Dec-12 12:35 33.676803 -117.870882 208 60ft 0kts

Navigation Log

Ident Type
Flight plan parsing failed, navigation log unavailable